Time;durP1;ratioP1;P1;durP2;ratioP2;P2;SDS_P1;SDS_P2;PMS_P1;PMS_P2;Temp;Humidity;BMP_temperature;BMP_pressure;BME280_temperature;BME280_humidity;BME280_pressure;Samples;Min_cycle;Max_cycle;Signal;HPM_P1;HPM_P2
2022/10/02 00:01:14;;;;;;;;;;;;;;;11.43;100.00;96823.19;4900562;29;19965;-74
2022/10/02 00:03:41;;;;;;;;;;;;;;;11.41;100.00;96818.13;4900361;29;19997;-74
2022/10/02 00:06:14;;;;;;;;;;;;;;;11.41;100.00;96822.59;4898697;29;19952;-74
2022/10/02 00:08:40;;;;;;;;;;;;;;;11.41;100.00;96838.34;4885977;29;19956;-73
2022/10/02 00:11:18;;;;;;;;;;;;;;;11.41;100.00;96820.75;4899767;29;19953;-74
2022/10/02 00:13:46;;;;;;;;;;;;;;;11.40;100.00;96831.47;4900101;29;19955;-74
2022/10/02 00:16:19;;;;;;;;;;;;;;;11.38;100.00;96837.75;4899595;29;19954;-74
2022/10/02 00:18:46;;;;;;;;;;;;;;;11.36;100.00;96834.53;4899858;29;19962;-73
2022/10/02 00:21:21;;;;;;;;;;;;;;;11.36;100.00;96837.16;4899585;29;19979;-74
2022/10/02 00:23:53;;;;;;;;;;;;;;;11.37;100.00;96837.97;4899781;29;20354;-74
2022/10/02 00:26:22;;;;;;;;;;;;;;;11.35;100.00;96817.16;4899606;29;19969;-75
2022/10/02 00:29:00;;;;;;;;;;;;;;;11.33;100.00;96819.19;4899686;29;19964;-74
2022/10/02 00:31:45;;;;;;;;;;;;;;;11.32;100.00;96827.31;4899261;29;20338;-74
2022/10/02 00:34:20;;;;;;;;;;;;;;;11.32;100.00;96845.69;4899730;29;19969;-74
2022/10/02 00:36:53;;;;;;;;;;;;;;;11.31;100.00;96830.94;4899380;29;20431;-74
2022/10/02 00:39:37;;;;;;;;;;;;;;;11.29;100.00;96838.22;4899615;29;19969;-74
2022/10/02 00:42:22;;;;;;;;;;;;;;;11.28;100.00;96847.13;4899176;29;19976;-74
2022/10/02 00:45:06;;;;;;;;;;;;;;;11.26;100.00;96842.06;4899362;29;20334;-74
2022/10/02 00:47:52;;;;;;;;;;;;;;;11.24;100.00;96830.97;4899077;29;19962;-74
2022/10/02 00:50:36;;;;;;;;;;;;;;;11.24;100.00;96840.69;4899664;29;19958;-74
2022/10/02 00:53:02;;;;;;;;;;;;;;;11.22;100.00;96845.34;4899067;29;19948;-74
2022/10/02 00:55:45;;;;;;;;;;;;;;;11.20;100.00;96844.75;4898323;29;19973;-74
2022/10/02 00:58:10;;;;;;;;;;;;;;;11.18;100.00;96851.00;4899507;29;19984;-75
2022/10/02 01:00:38;;;;;;;;;;;;;;;11.17;100.00;96854.66;4898968;29;19981;-75
2022/10/02 01:03:04;;;;;;;;;;;;;;;11.15;100.00;96851.44;4899179;29;20354;-75
2022/10/02 01:05:33;;;;;;;;;;;;;;;11.16;100.00;96849.59;4898930;29;20057;-74
2022/10/02 01:07:59;;;;;;;;;;;;;;;11.15;100.00;96845.38;4898972;29;19981;-75
2022/10/02 01:10:26;;;;;;;;;;;;;;;11.16;100.00;96862.72;4898716;29;19959;-75
2022/10/02 01:12:52;;;;;;;;;;;;;;;11.15;100.00;96859.31;4898896;29;19954;-74
2022/10/02 01:15:20;;;;;;;;;;;;;;;11.14;100.00;96852.44;4898775;29;19960;-74
2022/10/02 01:17:47;;;;;;;;;;;;;;;11.14;100.00;96867.38;4898877;29;20463;-75
2022/10/02 01:20:18;;;;;;;;;;;;;;;11.15;100.00;96864.56;4883742;29;19982;-75
2022/10/02 01:22:47;;;;;;;;;;;;;;;11.16;100.00;96870.59;4898511;29;19966;-75
2022/10/02 01:25:13;;;;;;;;;;;;;;;11.15;100.00;96854.06;4899184;29;19971;-75
2022/10/02 01:27:39;;;;;;;;;;;;;;;11.17;100.00;96853.81;4898514;29;20315;-75
2022/10/02 01:30:10;;;;;;;;;;;;;;;11.17;100.00;96848.56;4898589;29;19960;-75
2022/10/02 01:32:46;;;;;;;;;;;;;;;11.18;100.00;96831.81;4897201;29;19985;-74
2022/10/02 01:35:12;;;;;;;;;;;;;;;11.16;100.00;96841.72;4898661;29;19959;-75
2022/10/02 01:37:39;;;;;;;;;;;;;;;11.18;100.00;96844.94;4897999;29;19970;-75
2022/10/02 01:40:08;;;;;;;;;;;;;;;11.19;100.00;96846.53;4897574;29;19975;-74
2022/10/02 01:42:35;;;;;;;;;;;;;;;11.20;100.00;96836.88;4897754;29;19959;-74
2022/10/02 01:45:03;;;;;;;;;;;;;;;11.25;100.00;96845.69;4898427;29;19964;-74
2022/10/02 01:47:38;;;;;;;;;;;;;;;11.28;100.00;96844.50;4898346;29;20431;-75
2022/10/02 01:50:22;;;;;;;;;;;;;;;11.28;100.00;96853.16;4898797;29;19960;-73
2022/10/02 01:52:53;;;;;;;;;;;;;;;11.28;100.00;96842.66;4898582;29;19963;-74
2022/10/02 01:55:28;;;;;;;;;;;;;;;11.30;100.00;96845.09;4898302;29;19960;-74
2022/10/02 01:58:15;;;;;;;;;;;;;;;11.30;100.00;96847.72;4898585;29;19968;-74
2022/10/02 02:01:01;;;;;;;;;;;;;;;11.33;100.00;96857.78;4897055;29;19967;-73
2022/10/02 02:03:37;;;;;;;;;;;;;;;11.32;100.00;96853.56;4892338;29;19967;-73
2022/10/02 02:06:11;;;;;;;;;;;;;;;11.33;100.00;96857.78;4900302;29;19949;-73
2022/10/02 02:08:46;;;;;;;;;;;;;;;11.34;100.00;96856.78;4901912;29;19952;-75
2022/10/02 02:11:14;;;;;;;;;;;;;;;11.33;100.00;96847.28;4902252;29;20330;-74
2022/10/02 02:13:44;;;;;;;;;;;;;;;11.34;100.00;96841.81;4902010;29;19960;-73
2022/10/02 02:16:13;;;;;;;;;;;;;;;11.34;100.00;96838.41;4902217;29;19949;-73
2022/10/02 02:18:42;;;;;;;;;;;;;;;11.34;100.00;96833.94;4901861;29;19952;-74
2022/10/02 02:21:17;;;;;;;;;;;;;;;11.36;100.00;96855.53;4901599;29;19969;-73
2022/10/02 02:23:44;;;;;;;;;;;;;;;11.35;100.00;96856.53;4902161;29;19956;-73
2022/10/02 02:26:11;;;;;;;;;;;;;;;11.36;100.00;96863.41;4901641;29;20416;-73
2022/10/02 02:28:41;;;;;;;;;;;;;;;11.36;100.00;96850.28;4901835;29;19966;-73
2022/10/02 02:31:07;;;;;;;;;;;;;;;11.37;100.00;96840.59;4900306;29;19957;-74
2022/10/02 02:33:38;;;;;;;;;;;;;;;11.37;100.00;96846.63;4901692;29;19990;-74
2022/10/02 02:36:08;;;;;;;;;;;;;;;11.38;100.00;96831.69;4901640;29;19968;-74
2022/10/02 02:38:52;;;;;;;;;;;;;;;11.36;100.00;96817.97;4901499;29;19967;-74
2022/10/02 02:41:24;;;;;;;;;;;;;;;11.36;100.00;96805.66;4901499;29;19985;-74
2022/10/02 02:44:05;;;;;;;;;;;;;;;11.35;100.00;96811.09;4901477;29;19959;-74
2022/10/02 02:49:29;;;;;;;;;;;;;;;11.36;100.00;96836.38;4901596;29;20333;-74
2022/10/02 02:51:56;;;;;;;;;;;;;;;11.36;100.00;96841.63;4901444;29;20027;-74
2022/10/02 02:54:25;;;;;;;;;;;;;;;11.37;100.00;96843.22;4901223;29;19962;-74
2022/10/02 02:56:51;;;;;;;;;;;;;;;11.36;100.00;96845.03;4901363;29;19956;-74
2022/10/02 02:59:19;;;;;;;;;;;;;;;11.36;100.00;96841.63;4901239;29;19968;-73
2022/10/02 03:01:45;;;;;;;;;;;;;;;11.37;100.00;96848.47;4901097;29;19964;-73
2022/10/02 03:04:12;;;;;;;;;;;;;;;11.36;100.00;96842.41;4900742;29;19965;-73
2022/10/02 03:06:45;;;;;;;;;;;;;;;11.37;100.00;96856.34;4901100;29;20491;-73
2022/10/02 03:09:12;;;;;;;;;;;;;;;11.36;100.00;96858.16;4900907;29;19959;-73
2022/10/02 03:11:57;;;;;;;;;;;;;;;11.37;100.00;96857.13;4901159;29;19956;-73
2022/10/02 03:14:25;;;;;;;;;;;;;;;11.37;100.00;96857.13;4901110;29;19985;-73
2022/10/02 03:17:16;;;;;;;;;;;;;;;11.39;100.00;96854.31;4900706;29;19967;-73
2022/10/02 03:19:44;;;;;;;;;;;;;;;11.38;100.00;96853.50;4891742;29;19977;-73
2022/10/02 03:22:19;;;;;;;;;;;;;;;11.37;100.00;96848.47;4900844;29;19958;-73
2022/10/02 03:24:51;;;;;;;;;;;;;;;11.37;100.00;96843.22;4901201;29;20324;-73
2022/10/02 03:27:29;;;;;;;;;;;;;;;11.37;100.00;96840.59;4900631;29;19956;-73
2022/10/02 03:30:02;;;;;;;;;;;;;;;11.38;100.00;96836.94;4900473;29;19970;-74
2022/10/02 03:32:28;;;;;;;;;;;;;;;11.37;100.00;96844.00;4900697;29;19989;-73
2022/10/02 03:34:56;;;;;;;;;;;;;;;11.38;100.00;96848.25;4900538;29;19956;-73
2022/10/02 03:37:23;;;;;;;;;;;;;;;11.38;100.00;96839.56;4901122;29;19958;-73
2022/10/02 03:39:51;;;;;;;;;;;;;;;11.38;100.00;96839.56;4900454;29;19977;-74
2022/10/02 03:42:22;;;;;;;;;;;;;;;11.38;100.00;96836.94;4898710;29;20151;-73
2022/10/02 03:44:48;;;;;;;;;;;;;;;11.37;100.00;96836.13;4900828;29;20345;-73
2022/10/02 03:47:15;;;;;;;;;;;;;;;11.38;100.00;96843.00;4900258;29;19970;-73
2022/10/02 03:49:41;;;;;;;;;;;;;;;11.38;100.00;96837.75;4900717;29;19961;-73
2022/10/02 03:52:12;;;;;;;;;;;;;;;11.38;100.00;96827.25;4900234;29;20410;-73
2022/10/02 03:54:38;;;;;;;;;;;;;;;11.38;100.00;96834.31;4900266;29;19961;-73
2022/10/02 03:57:07;;;;;;;;;;;;;;;11.39;100.00;96835.94;4900067;29;20373;-73
2022/10/02 03:59:35;;;;;;;;;;;;;;;11.38;100.00;96837.75;4899846;29;19950;-73
2022/10/02 04:02:05;;;;;;;;;;;;;;;11.38;100.00;96835.13;4900026;29;19976;-73
2022/10/02 04:04:39;;;;;;;;;;;;;;;11.38;100.00;96842.19;4899977;29;19983;-73
2022/10/02 04:07:09;;;;;;;;;;;;;;;11.38;100.00;96840.38;4899904;29;20327;-74
2022/10/02 04:09:38;;;;;;;;;;;;;;;11.37;100.00;96840.59;4900383;29;19961;-73
2022/10/02 04:12:09;;;;;;;;;;;;;;;11.37;100.00;96846.63;4899773;29;19946;-73
2022/10/02 04:14:40;;;;;;;;;;;;;;;11.38;100.00;96850.88;4900035;29;19956;-73
2022/10/02 04:17:13;;;;;;;;;;;;;;;11.39;100.00;96846.44;4898680;29;20333;-73
2022/10/02 04:19:39;;;;;;;;;;;;;;;11.38;100.00;96852.69;4899609;29;20411;-73
2022/10/02 04:22:29;;;;;;;;;;;;;;;11.37;100.00;96846.63;4899521;29;19945;-73
2022/10/02 04:25:02;;;;;;;;;;;;;;;11.38;100.00;96850.06;4899814;29;19958;-74
2022/10/02 04:27:37;;;;;;;;;;;;;;;11.37;100.00;96840.59;4899579;29;19961;-74
2022/10/02 04:30:05;;;;;;;;;;;;;;;11.37;100.00;96851.88;4899553;29;19958;-74
2022/10/02 04:32:32;;;;;;;;;;;;;;;11.36;100.00;96837.16;4899312;29;19993;-74
2022/10/02 04:34:59;;;;;;;;;;;;;;;11.37;100.00;96836.13;4898852;29;19969;-74
2022/10/02 04:37:36;;;;;;;;;;;;;;;11.37;100.00;96843.22;4899360;29;19964;-74
2022/10/02 04:40:20;;;;;;;;;;;;;;;11.36;100.00;96849.50;4899356;29;19977;-74
2022/10/02 04:42:54;;;;;;;;;;;;;;;11.36;100.00;96846.88;4888856;29;19958;-74
2022/10/02 04:45:25;;;;;;;;;;;;;;;11.37;100.00;96843.22;4898199;29;19963;-74
2022/10/02 04:48:11;;;;;;;;;;;;;;;11.35;100.00;96830.28;4899417;29;20342;-74
2022/10/02 04:50:51;;;;;;;;;;;;;;;11.37;100.00;96843.22;4898781;29;19952;-75
2022/10/02 04:53:42;;;;;;;;;;;;;;;11.37;100.00;96843.22;4899781;29;19958;-74
2022/10/02 04:56:23;;;;;;;;;;;;;;;11.38;100.00;96831.69;4898301;29;19981;-74
2022/10/02 04:58:55;;;;;;;;;;;;;;;11.38;100.00;96826.44;4888609;29;20008;-74
2022/10/02 05:01:27;;;;;;;;;;;;;;;11.40;100.00;96818.34;4888571;29;19976;-74
2022/10/02 05:04:06;;;;;;;;;;;;;;;11.40;100.00;96823.59;4899172;29;19960;-73
2022/10/02 05:06:47;;;;;;;;;;;;;;;11.41;100.00;96820.75;4898905;29;19968;-73
2022/10/02 05:09:36;;;;;;;;;;;;;;;11.40;100.00;96824.38;4898933;29;20431;-73
2022/10/02 05:12:21;;;;;;;;;;;;;;;11.41;100.00;96823.38;4898842;29;19966;-73
2022/10/02 05:15:03;;;;;;;;;;;;;;;11.40;100.00;96821.75;4898797;29;20333;-73
2022/10/02 05:17:29;;;;;;;;;;;;;;;11.40;100.00;96823.59;4898149;29;19956;-73
2022/10/02 05:20:07;;;;;;;;;;;;;;;11.40;100.00;96813.09;4898586;29;20002;-74
2022/10/02 05:22:56;;;;;;;;;;;;;;;11.40;100.00;96829.63;4898722;29;20338;-74
2022/10/02 05:25:32;;;;;;;;;;;;;;;11.41;100.00;96822.59;4891162;29;19957;-74
2022/10/02 05:28:08;;;;;;;;;;;;;;;11.41;100.00;96818.13;4898694;29;19954;-74
2022/10/02 05:30:43;;;;;;;;;;;;;;;11.43;100.00;96818.72;4898668;29;20421;-73
2022/10/02 05:33:18;;;;;;;;;;;;;;;11.43;100.00;96826.59;4889751;29;19977;-74
2022/10/02 05:36:02;;;;;;;;;;;;;;;11.43;100.00;96821.34;4898790;29;19964;-73
2022/10/02 05:38:31;;;;;;;;;;;;;;;11.44;100.00;96819.53;4898426;29;19952;-73
2022/10/02 05:41:07;;;;;;;;;;;;;;;11.45;100.00;96831.66;4901937;29;20450;-74
2022/10/02 05:43:52;;;;;;;;;;;;;;;11.45;100.00;96818.53;4905072;29;20288;-73
2022/10/02 05:46:25;;;;;;;;;;;;;;;11.44;100.00;96809.81;4892402;29;19958;-73
2022/10/02 05:48:54;;;;;;;;;;;;;;;11.44;100.00;96811.66;4904674;29;19962;-73
2022/10/02 05:51:39;;;;;;;;;;;;;;;11.45;100.00;96808.81;4904861;29;20444;-73
2022/10/02 05:54:12;;;;;;;;;;;;;;;11.45;100.00;96815.91;4904762;29;19965;-73
2022/10/02 05:56:42;;;;;;;;;;;;;;;11.46;100.00;96825.38;4904804;29;19965;-73
2022/10/02 05:59:10;;;;;;;;;;;;;;;11.47;100.00;96827.00;4905250;29;19963;-73
2022/10/02 06:01:38;;;;;;;;;;;;;;;11.48;100.00;96831.22;4904453;29;19980;-73
2022/10/02 06:04:26;;;;;;;;;;;;;;;11.49;100.00;96843.34;4904690;29;19998;-73
2022/10/02 06:06:53;;;;;;;;;;;;;;;11.52;100.00;96842.91;4898329;29;20413;-73
2022/10/02 06:09:28;;;;;;;;;;;;;;;11.54;100.00;96839.03;4904631;29;19958;-73
2022/10/02 06:11:56;;;;;;;;;;;;;;;11.57;100.00;96838.63;4904424;29;19975;-73
2022/10/02 06:14:51;;;;;;;;;;;;;;;11.59;100.00;96830.53;4904603;29;19966;-73
2022/10/02 06:17:26;;;;;;;;;;;;;;;11.63;100.00;96841.41;4882202;29;19961;-73
2022/10/02 06:20:01;;;;;;;;;;;;;;;11.64;100.00;96832.50;4904423;29;20429;-73
2022/10/02 06:22:34;;;;;;;;;;;;;;;11.64;100.00;96828.06;4904831;29;20333;-73
2022/10/02 06:25:03;;;;;;;;;;;;;;;11.66;100.00;96819.97;4904682;29;20418;-73
2022/10/02 06:27:39;;;;;;;;;;;;;;;11.67;100.00;96816.31;4904563;29;20316;-73
2022/10/02 06:30:08;;;;;;;;;;;;;;;11.68;100.00;96816.09;4904277;29;19955;-73
2022/10/02 06:32:40;;;;;;;;;;;;;;;11.69;100.00;96820.31;4904361;29;19991;-73
2022/10/02 06:35:11;;;;;;;;;;;;;;;11.70;100.00;96803.56;4904375;29;19958;-73
2022/10/02 06:37:43;;;;;;;;;;;;;;;11.71;100.00;96796.47;4904621;29;20312;-74
2022/10/02 06:40:29;;;;;;;;;;;;;;;11.74;100.00;96788.16;4904446;29;19958;-74
2022/10/02 06:43:01;;;;;;;;;;;;;;;11.77;100.00;96772.75;4895309;29;19963;-74
2022/10/02 06:45:32;;;;;;;;;;;;;;;11.82;100.00;96779.19;4904206;29;19958;-74
2022/10/02 06:48:04;;;;;;;;;;;;;;;11.87;100.00;96782.78;4904606;29;20322;-74
2022/10/02 06:50:43;;;;;;;;;;;;;;;11.93;100.00;96774.06;4904905;29;19959;-74
2022/10/02 06:53:18;;;;;;;;;;;;;;;11.95;100.00;96756.25;4900604;29;19959;-75
2022/10/02 06:56:02;;;;;;;;;;;;;;;11.98;100.00;96760.25;4901129;29;19959;-73
2022/10/02 06:58:44;;;;;;;;;;;;;;;12.01;100.00;96757.19;4900926;29;19956;-74
2022/10/02 07:01:30;;;;;;;;;;;;;;;12.02;100.00;96768.50;4900472;29;19988;-74
2022/10/02 07:03:59;;;;;;;;;;;;;;;12.05;100.00;96768.06;4900794;29;19957;-74
2022/10/02 07:06:33;;;;;;;;;;;;;;;12.09;100.00;96763.97;4900985;29;19957;-73
2022/10/02 07:09:17;;;;;;;;;;;;;;;12.12;100.00;96763.56;4901498;29;20314;-73
2022/10/02 07:11:46;;;;;;;;;;;;;;;12.14;100.00;96772.81;4891940;29;19956;-73
2022/10/02 07:14:32;;;;;;;;;;;;;;;12.15;100.00;96761.25;4900979;29;19966;-75
2022/10/02 07:17:17;;;;;;;;;;;;;;;12.16;100.00;96764.72;4901024;29;19948;-74
2022/10/02 07:19:43;;;;;;;;;;;;;;;12.16;100.00;96759.47;4900936;29;20312;-74
2022/10/02 07:22:18;;;;;;;;;;;;;;;12.15;100.00;96748.13;4900963;29;19965;-74
2022/10/02 07:24:43;;;;;;;;;;;;;;;12.16;100.00;96756.84;4888566;29;19955;-74
2022/10/02 07:27:10;;;;;;;;;;;;;;;12.17;100.00;96753.16;4900540;29;20001;-74
2022/10/02 07:29:42;;;;;;;;;;;;;;;12.17;100.00;96753.97;4900997;29;19962;-75
2022/10/02 07:32:46;;;;;;;;;;;;;;;12.19;100.00;96746.66;4900204;29;20362;-75
2022/10/02 07:35:24;;;;;;;;;;;;;;;12.20;100.00;96744.84;4842739;29;19966;-75
2022/10/02 07:38:09;;;;;;;;;;;;;;;12.21;100.00;96741.19;4895058;29;19961;-75
2022/10/02 07:40:41;;;;;;;;;;;;;;;12.24;100.00;96747.81;4891788;29;20341;-75
2022/10/02 07:43:16;;;;;;;;;;;;;;;12.25;100.00;96741.56;4890035;29;19952;-74
2022/10/02 07:45:49;;;;;;;;;;;;;;;12.26;100.00;96751.84;4900216;29;19957;-74
2022/10/02 07:48:27;;;;;;;;;;;;;;;12.28;100.00;96755.03;4900684;29;19950;-74
2022/10/02 07:51:03;;;;;;;;;;;;;;;12.30;100.00;96758.25;4900251;29;20327;-74
2022/10/02 07:53:40;;;;;;;;;;;;;;;12.33;100.00;96763.09;4900238;29;19958;-75
2022/10/02 07:56:08;;;;;;;;;;;;;;;12.39;100.00;96764.84;4900231;29;19958;-74
2022/10/02 07:58:37;;;;;;;;;;;;;;;12.46;100.00;96758.69;4900061;29;19959;-74
2022/10/02 08:01:07;;;;;;;;;;;;;;;12.49;100.00;96760.88;4899566;29;19973;-74
2022/10/02 08:03:34;;;;;;;;;;;;;;;12.55;100.00;96763.41;4900073;29;19964;-74
2022/10/02 08:06:01;;;;;;;;;;;;;;;12.68;100.00;96749.31;4899849;29;19949;-74
2022/10/02 08:08:27;;;;;;;;;;;;;;;12.70;100.00;96744.59;4899907;29;20304;-74
2022/10/02 08:11:01;;;;;;;;;;;;;;;12.73;100.00;96752.06;4899911;29;20000;-74
2022/10/02 08:13:33;;;;;;;;;;;;;;;12.80;100.00;96742.22;4899735;29;19968;-74
2022/10/02 08:16:03;;;;;;;;;;;;;;;12.88;100.00;96743.75;4900007;29;20420;-74
2022/10/02 08:18:34;;;;;;;;;;;;;;;13.02;100.00;96751.44;4899650;29;19956;-74
2022/10/02 08:21:00;;;;;;;;;;;;;;;13.14;100.00;96739.09;4899640;29;19965;-74
2022/10/02 08:23:30;;;;;;;;;;;;;;;13.29;100.00;96746.59;4899641;29;19957;-74
2022/10/02 08:26:02;;;;;;;;;;;;;;;13.37;100.00;96744.41;4899900;29;19958;-74
2022/10/02 08:28:31;;;;;;;;;;;;;;;13.45;100.00;96747.75;4899521;29;19962;-74
2022/10/02 08:30:57;;;;;;;;;;;;;;;13.51;100.00;96745.00;4899433;29;19968;-74
2022/10/02 08:33:24;;;;;;;;;;;;;;;13.59;100.00;96749.94;4899531;29;19992;-74
2022/10/02 08:36:02;;;;;;;;;;;;;;;13.69;100.00;96754.66;4899459;29;19969;-75
2022/10/02 08:38:35;;;;;;;;;;;;;;;13.76;100.00;96742.16;4899792;29;19958;-74
2022/10/02 08:41:19;;;;;;;;;;;;;;;13.82;100.00;96735.16;4899259;29;19965;-74
2022/10/02 08:44:13;;;;;;;;;;;;;;;13.90;100.00;96732.16;4899330;29;19956;-74
2022/10/02 08:46:42;;;;;;;;;;;;;;;14.03;100.00;96736.38;4899624;29;20318;-74
2022/10/02 08:49:26;;;;;;;;;;;;;;;14.20;100.00;96741.75;4899026;29;19946;-74
2022/10/02 08:52:01;;;;;;;;;;;;;;;14.32;100.00;96720.56;4899038;29;19946;-74
2022/10/02 08:54:48;;;;;;;;;;;;;;;14.41;100.00;96706.78;4899237;29;19956;-74
2022/10/02 08:57:27;;;;;;;;;;;;;;;14.57;100.00;96707.09;4883980;29;19956;-74
2022/10/02 09:00:01;;;;;;;;;;;;;;;14.81;100.00;96710.44;4899654;29;20405;-74
2022/10/02 09:02:45;;;;;;;;;;;;;;;15.04;100.00;96703.41;4899266;29;19998;-74
2022/10/02 09:05:11;;;;;;;;;;;;;;;15.23;100.00;96692.34;4899047;29;20031;-75
2022/10/02 09:08:07;;;;;;;;;;;;;;;15.37;100.00;96697.28;4899103;29;20048;-74
2022/10/02 09:10:33;;;;;;;;;;;;;;;15.54;100.00;96694.63;4832823;29;19954;-75
2022/10/02 09:13:18;;;;;;;;;;;;;;;15.72;100.00;96689.09;4898838;29;19965;-74
2022/10/02 09:15:45;;;;;;;;;;;;;;;15.94;100.00;96689.13;4898525;29;20330;-74
2022/10/02 09:18:15;;;;;;;;;;;;;;;16.20;100.00;96700.00;4898905;29;19948;-75
2022/10/02 09:20:50;;;;;;;;;;;;;;;16.39;100.00;96709.22;4898587;29;20304;-75
2022/10/02 09:23:25;;;;;;;;;;;;;;;16.54;96.52;96683.94;4898730;29;19966;-75
2022/10/02 09:25:52;;;;;;;;;;;;;;;16.65;94.53;96683.00;4888928;29;19959;-75
2022/10/02 09:28:30;;;;;;;;;;;;;;;16.68;94.47;96687.00;4898593;29;19958;-75
2022/10/02 09:30:57;;;;;;;;;;;;;;;16.70;94.57;96692.84;4898622;29;19986;-75
2022/10/02 09:33:41;;;;;;;;;;;;;;;16.79;95.92;96694.78;4897440;29;19984;-75
2022/10/02 09:36:27;;;;;;;;;;;;;;;16.86;96.65;96685.84;4886925;29;19957;-75
2022/10/02 09:39:00;;;;;;;;;;;;;;;16.94;93.37;96677.44;4898955;29;19960;-75
2022/10/02 09:41:46;;;;;;;;;;;;;;;17.01;92.49;96684.16;4898837;29;19978;-75
2022/10/02 09:44:18;;;;;;;;;;;;;;;17.08;92.35;96688.44;4898440;29;20064;-75
2022/10/02 09:46:47;;;;;;;;;;;;;;;17.00;91.33;96687.03;4898208;29;19964;-75
2022/10/02 09:49:12;;;;;;;;;;;;;;;16.93;91.53;96689.91;4898870;29;19959;-75
2022/10/02 09:51:47;;;;;;;;;;;;;;;16.88;91.60;96683.75;4898283;29;20405;-75
2022/10/02 09:54:29;;;;;;;;;;;;;;;16.88;91.57;96695.16;4898446;29;20060;-75
2022/10/02 09:57:01;;;;;;;;;;;;;;;16.96;92.35;96688.59;4898588;29;20332;-76
2022/10/02 09:59:45;;;;;;;;;;;;;;;16.99;89.60;96677.50;4898205;29;19959;-76
2022/10/02 10:02:19;;;;;;;;;;;;;;;17.01;91.82;96683.34;4898639;29;19982;-76
2022/10/02 10:04:57;;;;;;;;;;;;;;;16.97;91.22;96691.00;4898301;29;20342;-76
2022/10/02 10:07:42;;;;;;;;;;;;;;;17.00;91.85;96687.84;4898385;29;19967;-76
2022/10/02 10:10:26;;;;;;;;;;;;;;;17.10;91.84;96686.34;4884769;29;19959;-76
2022/10/02 10:13:11;;;;;;;;;;;;;;;17.16;88.26;96659.63;4898326;29;19953;-76
2022/10/02 10:15:43;;;;;;;;;;;;;;;17.18;90.61;96668.13;4898302;29;19958;-76
2022/10/02 10:18:09;;;;;;;;;;;;;;;17.19;89.00;96661.75;4898222;29;19951;-76
2022/10/02 10:20:53;;;;;;;;;;;;;;;17.25;90.21;96679.28;4898305;29;19954;-76
2022/10/02 10:23:40;;;;;;;;;;;;;;;17.34;90.28;96687.56;4898417;29;19960;-76
2022/10/02 10:26:09;;;;;;;;;;;;;;;17.44;87.65;96679.66;4898578;29;19967;-76
2022/10/02 10:28:41;;;;;;;;;;;;;;;17.52;87.61;96683.69;4901729;29;20411;-76
2022/10/02 10:31:10;;;;;;;;;;;;;;;17.53;87.09;96679.19;4886224;29;19974;-76
2022/10/02 10:33:36;;;;;;;;;;;;;;;17.53;88.06;96687.94;4901423;29;19980;-76
2022/10/02 10:36:04;;;;;;;;;;;;;;;17.53;87.30;96690.59;4901982;29;20374;-76
2022/10/02 10:38:36;;;;;;;;;;;;;;;17.50;84.69;96666.47;4901398;29;19961;-76
2022/10/02 10:41:21;;;;;;;;;;;;;;;17.49;84.41;96670.16;4901361;29;19982;-77
2022/10/02 10:44:25;;;;;;;;;;;;;;;17.48;87.18;96689.78;4901230;29;19965;-76
2022/10/02 10:46:55;;;;;;;;;;;;;;;17.51;85.31;96678.66;4843453;29;19956;-76
2022/10/02 10:49:21;;;;;;;;;;;;;;;17.56;85.67;96676.03;4843553;29;19972;-76
2022/10/02 10:52:06;;;;;;;;;;;;;;;17.67;83.98;96659.13;4871896;29;19964;-76
2022/10/02 10:54:32;;;;;;;;;;;;;;;17.78;81.94;96666.06;4901486;29;19961;-76
2022/10/02 10:57:10;;;;;;;;;;;;;;;17.85;81.05;96663.22;4901533;29;20017;-76
2022/10/02 11:00:01;;;;;;;;;;;;;;;17.88;82.94;96669.88;4901387;29;19954;-76
2022/10/02 11:02:34;;;;;;;;;;;;;;;17.93;81.68;96662.72;4901261;29;19981;-76
2022/10/02 11:05:37;;;;;;;;;;;;;;;18.08;82.59;96669.94;4901178;29;20360;-77
2022/10/02 11:08:21;;;;;;;;;;;;;;;18.20;79.75;96653.78;4900550;29;19958;-76
2022/10/02 11:10:50;;;;;;;;;;;;;;;18.36;78.60;96646.66;4900967;29;20078;-76
2022/10/02 11:13:29;;;;;;;;;;;;;;;18.57;80.65;96656.25;4901262;29;19959;-76
2022/10/02 11:15:58;;;;;;;;;;;;;;;18.75;77.90;96628.38;4900965;29;19962;-76
2022/10/02 11:18:25;;;;;;;;;;;;;;;18.93;84.19;96658.16;4900448;29;20410;-76
2022/10/02 11:20:57;;;;;;;;;;;;;;;19.06;75.42;96607.91;4900901;29;19967;-76
2022/10/02 11:23:34;;;;;;;;;;;;;;;19.35;78.39;96631.28;4900771;29;19954;-76
2022/10/02 11:26:20;;;;;;;;;;;;;;;19.50;77.63;96616.34;4900934;29;19956;-76
2022/10/02 11:28:57;;;;;;;;;;;;;;;19.30;72.15;96585.25;4900774;29;20329;-76
2022/10/02 11:31:32;;;;;;;;;;;;;;;18.92;73.72;96612.19;4900483;29;19958;-76
2022/10/02 11:34:18;;;;;;;;;;;;;;;18.70;75.58;96622.25;4901249;29;19967;-76
2022/10/02 11:37:04;;;;;;;;;;;;;;;18.52;76.44;96615.59;4900624;29;19966;-76
2022/10/02 11:39:44;;;;;;;;;;;;;;;18.49;76.54;96611.63;4885227;29;19952;-76
2022/10/02 11:42:16;;;;;;;;;;;;;;;18.46;75.93;96614.81;4900467;29;19976;-76
2022/10/02 11:44:54;;;;;;;;;;;;;;;18.42;75.76;96613.75;4900511;29;20332;-76
2022/10/02 11:47:20;;;;;;;;;;;;;;;18.38;75.77;96632.06;4886949;29;19969;-76
2022/10/02 11:50:00;;;;;;;;;;;;;;;18.37;76.00;96624.34;4900217;29;19958;-76
2022/10/02 11:52:36;;;;;;;;;;;;;;;18.36;77.11;96633.38;4899977;29;19954;-76
2022/10/02 11:55:15;;;;;;;;;;;;;;;18.33;78.42;96632.06;4900207;29;20394;-76
2022/10/02 11:58:03;;;;;;;;;;;;;;;18.31;75.79;96601.50;4899329;29;19958;-76
2022/10/02 12:00:29;;;;;;;;;;;;;;;18.30;75.99;96621.16;4892312;29;20401;-76
2022/10/02 12:03:14;;;;;;;;;;;;;;;18.28;77.99;96634.69;4899875;29;20029;-76
2022/10/02 12:05:47;;;;;;;;;;;;;;;18.21;79.27;96637.59;4899690;29;20347;-76
2022/10/02 12:08:29;;;;;;;;;;;;;;;18.12;79.65;96649.78;4900164;29;19951;-76
2022/10/02 12:10:55;;;;;;;;;;;;;;;18.08;80.32;96667.28;4899821;29;19965;-76
2022/10/02 12:13:27;;;;;;;;;;;;;;;17.97;78.35;96639.91;4900033;29;19964;-76
2022/10/02 12:15:59;;;;;;;;;;;;;;;17.88;79.75;96659.25;4899836;29;19981;-76
2022/10/02 12:18:44;;;;;;;;;;;;;;;17.80;80.64;96663.94;4899839;29;19977;-76
2022/10/02 12:27:21;;;;;;;;;;;;;;;17.77;81.98;96667.13;4890630;29;19961;-76
2022/10/02 12:29:50;;;;;;;;;;;;;;;17.83;81.56;96657.38;4899583;29;20318;-76
2022/10/02 12:32:28;;;;;;;;;;;;;;;17.95;81.65;96657.13;4899222;29;19994;-76
2022/10/02 12:35:20;;;;;;;;;;;;;;;18.01;82.18;96670.16;4899584;29;19966;-76
2022/10/02 12:37:52;;;;;;;;;;;;;;;17.85;82.12;96663.22;4899330;29;19955;-76
2022/10/02 12:40:22;;;;;;;;;;;;;;;17.53;82.61;96661.41;4899538;29;19961;-76
2022/10/02 12:43:06;;;;;;;;;;;;;;;17.19;83.33;96675.00;4899138;29;20427;-76
2022/10/02 12:45:42;;;;;;;;;;;;;;;16.90;84.99;96679.00;4899276;29;19965;-76
2022/10/02 12:48:17;;;;;;;;;;;;;;;16.62;85.20;96689.59;4885332;29;20442;-75
2022/10/02 12:51:04;;;;;;;;;;;;;;;16.37;86.88;96682.19;4898202;29;20018;-76
2022/10/02 12:53:43;;;;;;;;;;;;;;;16.20;87.53;96681.47;4899300;29;19969;-76
2022/10/02 12:56:08;;;;;;;;;;;;;;;16.07;88.86;96705.69;4899259;29;19959;-76
2022/10/02 12:58:43;;;;;;;;;;;;;;;15.89;88.39;96699.63;4898910;29;19961;-76
2022/10/02 13:01:09;;;;;;;;;;;;;;;15.70;90.41;96696.44;4898980;29;19969;-76
2022/10/02 13:03:35;;;;;;;;;;;;;;;15.68;90.81;96709.09;4899310;29;19965;-75
2022/10/02 13:06:05;;;;;;;;;;;;;;;15.64;92.66;96731.78;4898612;29;19958;-75
2022/10/02 13:08:31;;;;;;;;;;;;;;;15.47;91.46;96717.78;4887985;29;19963;-75
2022/10/02 13:11:06;;;;;;;;;;;;;;;15.21;91.39;96728.78;4898863;29;19957;-74
2022/10/02 13:13:41;;;;;;;;;;;;;;;14.98;95.30;96715.72;4899114;29;19964;-73
2022/10/02 13:16:15;;;;;;;;;;;;;;;14.83;94.96;96716.28;4898829;29;19951;-74
2022/10/02 13:18:44;;;;;;;;;;;;;;;14.76;95.92;96719.06;4899265;29;19960;-74
2022/10/02 13:21:22;;;;;;;;;;;;;;;14.75;96.51;96712.16;4899012;29;19948;-75
2022/10/02 13:24:14;;;;;;;;;;;;;;;14.77;99.03;96707.47;4898456;29;19957;-75
2022/10/02 13:26:41;;;;;;;;;;;;;;;14.81;99.03;96713.06;4895896;29;19959;-75